Time;durP1;ratioP1;P1;durP2;ratioP2;P2;SDS_P1;SDS_P2;PMS_P1;PMS_P2;Temp;Humidity;BMP_temperature;BMP_pressure;BME280_temperature;BME280_humidity;BME280_pressure;Samples;Min_cycle;Max_cycle;Signal;HPM_P1;HPM_P2
2022/07/05 00:01:01;;;;;;;5.00;1.90;;;14.10;99.90;;;;;;4985210;28;20196;-82
2022/07/05 00:03:27;;;;;;;2.30;1.70;;;14.10;99.90;;;;;;4985150;28;20216;-82
2022/07/05 00:05:54;;;;;;;2.27;2.07;;;14.10;99.90;;;;;;4983989;28;20315;-82
2022/07/05 00:08:20;;;;;;;2.57;1.97;;;14.10;99.90;;;;;;4985191;28;20228;-83
2022/07/05 00:10:47;;;;;;;2.40;1.90;;;14.00;99.90;;;;;;4983088;28;21096;-83
2022/07/05 00:13:13;;;;;;;3.50;1.70;;;14.00;99.90;;;;;;4982067;28;20243;-84
2022/07/05 00:15:39;;;;;;;2.93;2.07;;;14.00;99.90;;;;;;4981931;28;20220;-82
2022/07/05 00:18:05;;;;;;;2.37;2.00;;;13.90;99.90;;;;;;4983043;28;20976;-82
2022/07/05 00:20:30;;;;;;;2.40;1.67;;;13.90;99.90;;;;;;4983041;28;20294;-82
2022/07/05 00:22:56;;;;;;;2.17;1.90;;;13.90;99.90;;;;;;4999610;28;20250;-82
2022/07/05 00:25:22;;;;;;;2.40;2.20;;;13.80;99.90;;;;;;4985951;28;20195;-83
2022/07/05 00:27:47;;;;;;;3.43;2.00;;;13.80;99.90;;;;;;4985275;28;20223;-82
2022/07/05 00:30:13;;;;;;;2.57;1.90;;;13.80;99.90;;;;;;4989842;28;20227;-82
2022/07/05 00:32:40;;;;;;;2.20;2.00;;;13.80;99.90;;;;;;4986940;28;20251;-82
2022/07/05 00:35:08;;;;;;;2.10;1.90;;;13.70;99.90;;;;;;4986092;28;20220;-82
2022/07/05 00:37:34;;;;;;;1.80;1.60;;;13.70;99.90;;;;;;4991406;28;20223;-82
2022/07/05 00:40:00;;;;;;;4.33;2.10;;;13.70;99.90;;;;;;4989527;28;20184;-82
2022/07/05 00:42:26;;;;;;;2.40;2.20;;;13.80;99.90;;;;;;4988742;28;20578;-82
2022/07/05 00:44:52;;;;;;;4.33;1.60;;;13.80;99.90;;;;;;4990831;28;20557;-83
2022/07/05 00:47:18;;;;;;;1.50;1.03;;;13.90;99.90;;;;;;4985531;28;20282;-83
2022/07/05 00:49:44;;;;;;;1.50;1.40;;;14.00;99.90;;;;;;4986716;28;20207;-82
2022/07/05 00:52:11;;;;;;;1.60;1.17;;;14.00;99.90;;;;;;4987780;28;20582;-82
2022/07/05 00:54:39;;;;;;;1.47;1.33;;;14.00;99.90;;;;;;4987121;28;20223;-83
2022/07/05 00:57:06;;;;;;;1.77;1.67;;;14.00;99.90;;;;;;4988144;28;20693;-82
2022/07/05 00:59:32;;;;;;;1.57;1.47;;;14.00;99.90;;;;;;4986166;28;20224;-82
2022/07/05 01:01:58;;;;;;;1.23;1.13;;;14.10;99.90;;;;;;4990138;28;20230;-83
2022/07/05 01:04:25;;;;;;;1.43;1.33;;;14.00;99.90;;;;;;4986973;28;20180;-82
2022/07/05 01:06:51;;;;;;;1.53;1.40;;;14.00;99.90;;;;;;4987706;28;20429;-82
2022/07/05 01:09:19;;;;;;;1.60;0.97;;;14.00;99.90;;;;;;4987256;28;20898;-83
2022/07/05 01:11:46;;;;;;;2.97;1.10;;;14.00;99.90;;;;;;4988630;28;20329;-83
2022/07/05 01:14:21;;;;;;;1.60;1.50;;;14.10;99.90;;;;;;4986464;28;20306;-81
2022/07/05 01:16:48;;;;;;;1.00;0.90;;;14.20;99.90;;;;;;4988573;28;20219;-81
2022/07/05 01:19:16;;;;;;;1.00;0.90;;;14.20;99.90;;;;;;4983429;28;20266;-83
2022/07/05 01:21:46;;;;;;;0.90;0.80;;;14.30;99.90;;;;;;4988915;28;20697;-83
2022/07/05 01:24:14;;;;;;;1.10;1.00;;;14.30;99.90;;;;;;5006008;28;20673;-81
2022/07/05 01:26:41;;;;;;;1.47;1.03;;;14.30;99.90;;;;;;4985641;28;20231;-82
2022/07/05 01:29:08;;;;;;;1.00;0.90;;;14.20;99.90;;;;;;4986868;28;20584;-82
2022/07/05 01:31:37;;;;;;;1.90;1.03;;;14.10;99.90;;;;;;4984288;28;20188;-81
2022/07/05 01:34:04;;;;;;;2.03;1.53;;;14.10;99.90;;;;;;4990412;28;20184;-83
2022/07/05 01:36:30;;;;;;;2.23;0.93;;;14.10;99.90;;;;;;4986713;28;20686;-83
2022/07/05 01:38:55;;;;;;;1.27;1.03;;;14.00;99.90;;;;;;4986825;28;20236;-82
2022/07/05 01:41:21;;;;;;;2.97;1.10;;;14.10;99.90;;;;;;4986352;28;20251;-82
2022/07/05 01:43:47;;;;;;;1.37;0.90;;;14.10;99.90;;;;;;4986387;28;20234;-82
2022/07/05 01:46:17;;;;;;;3.30;1.03;;;14.10;99.90;;;;;;4986796;28;20215;-83
2022/07/05 01:48:42;;;;;;;1.33;1.23;;;14.10;99.90;;;;;;4987393;28;20236;-82
2022/07/05 01:51:22;;;;;;;2.93;1.00;;;14.10;99.90;;;;;;4982799;28;20469;-82
2022/07/05 01:53:51;;;;;;;5.27;1.10;;;14.20;99.90;;;;;;4982752;28;20240;-82
2022/07/05 01:56:17;;;;;;;0.87;0.83;;;14.30;99.90;;;;;;4985158;28;20771;-82
2022/07/05 01:58:45;;;;;;;1.30;1.20;;;14.30;99.90;;;;;;4986739;28;20231;-82
2022/07/05 02:01:12;;;;;;;3.07;1.50;;;14.40;99.90;;;;;;4984320;28;20191;-82
2022/07/05 02:03:40;;;;;;;1.40;1.30;;;14.40;99.90;;;;;;4983880;28;20273;-82
2022/07/05 02:06:10;;;;;;;0.80;0.70;;;14.50;99.90;;;;;;4986688;28;20216;-82
2022/07/05 02:08:36;;;;;;;6.07;1.53;;;14.50;99.90;;;;;;4982754;28;21024;-82
2022/07/05 02:11:03;;;;;;;2.17;1.57;;;14.50;99.90;;;;;;4990130;28;20230;-82
2022/07/05 02:13:29;;;;;;;1.60;1.50;;;14.50;99.90;;;;;;4986441;28;20188;-82
2022/07/05 02:15:55;;;;;;;1.23;1.13;;;14.50;99.90;;;;;;4985606;28;20247;-82
2022/07/05 02:18:20;;;;;;;1.10;1.00;;;14.50;99.90;;;;;;4983772;28;20220;-81
2022/07/05 02:20:46;;;;;;;2.97;1.07;;;14.40;99.90;;;;;;4981968;28;20688;-82
2022/07/05 02:23:12;;;;;;;1.70;1.30;;;14.30;99.90;;;;;;4987764;28;20226;-82
2022/07/05 02:25:38;;;;;;;0.77;0.77;;;14.30;99.90;;;;;;4991654;28;20208;-82
2022/07/05 02:28:04;;;;;;;1.17;1.07;;;14.30;99.90;;;;;;4987253;28;20188;-82
2022/07/05 02:30:30;;;;;;;1.20;1.07;;;14.20;99.90;;;;;;4986282;28;20278;-82
2022/07/05 02:32:55;;;;;;;1.47;0.90;;;14.20;99.90;;;;;;4983624;28;20215;-83
2022/07/05 02:35:21;;;;;;;1.33;1.20;;;14.10;99.90;;;;;;5003311;28;20517;-82
2022/07/05 02:37:47;;;;;;;4.07;1.33;;;14.10;99.90;;;;;;4967473;28;20770;-82
2022/07/05 02:48:07;;;;;;;2.77;1.30;;;13.90;99.90;;;;;;3504160;26;20248;-81
2022/07/05 02:50:32;;;;;;;1.83;1.27;;;13.90;99.90;;;;;;4971615;28;20231;-81
2022/07/05 02:52:58;;;;;;;2.37;1.03;;;13.90;99.90;;;;;;4981627;28;20219;-81
2022/07/05 02:55:24;;;;;;;1.17;1.07;;;13.80;99.90;;;;;;4982124;28;20615;-82
2022/07/05 02:57:49;;;;;;;2.43;1.17;;;13.80;99.90;;;;;;4981965;28;20232;-81
2022/07/05 03:00:15;;;;;;;3.13;1.10;;;13.80;99.90;;;;;;4980326;28;20223;-81
2022/07/05 03:02:41;;;;;;;1.10;1.00;;;13.70;99.90;;;;;;4982029;28;20310;-81
2022/07/05 03:05:07;;;;;;;1.33;1.23;;;13.70;99.90;;;;;;4980656;28;20227;-82
2022/07/05 03:07:32;;;;;;;2.00;1.27;;;13.70;99.90;;;;;;4996538;28;20703;-81
2022/07/05 03:09:58;;;;;;;1.57;1.00;;;13.70;99.90;;;;;;4997560;28;20200;-80
2022/07/05 03:12:24;;;;;;;1.50;1.27;;;13.70;99.90;;;;;;4980988;28;20235;-82
2022/07/05 03:14:50;;;;;;;3.77;1.40;;;13.70;99.90;;;;;;4980714;28;20247;-82
2022/07/05 03:17:15;;;;;;;2.33;0.87;;;13.70;99.90;;;;;;4980857;28;21959;-81
2022/07/05 03:19:41;;;;;;;1.10;1.00;;;13.70;99.90;;;;;;4981882;28;20232;-80
2022/07/05 03:22:07;;;;;;;2.37;1.57;;;13.70;99.90;;;;;;4985585;28;20605;-81
2022/07/05 03:24:32;;;;;;;1.40;1.30;;;13.70;99.90;;;;;;4964801;28;20719;-81
2022/07/05 03:26:58;;;;;;;1.77;1.67;;;13.70;99.90;;;;;;4981044;28;20699;-82
2022/07/05 03:29:24;;;;;;;1.87;1.40;;;13.60;99.90;;;;;;4997058;28;20223;-81
2022/07/05 03:31:49;;;;;;;1.97;1.20;;;13.60;99.90;;;;;;4996666;28;20674;-81
2022/07/05 03:34:15;;;;;;;5.97;1.47;;;13.70;99.90;;;;;;4982155;28;20207;-82
2022/07/05 03:36:41;;;;;;;2.47;2.27;;;13.70;99.90;;;;;;4981049;28;20227;-82
2022/07/05 03:39:07;;;;;;;1.57;1.47;;;13.70;99.90;;;;;;4980827;28;20298;-81
2022/07/05 03:41:33;;;;;;;1.37;1.27;;;13.80;99.90;;;;;;4982035;28;20266;-82
2022/07/05 03:43:59;;;;;;;1.53;1.43;;;13.80;99.90;;;;;;4981747;28;20556;-82
2022/07/05 03:46:24;;;;;;;1.83;1.70;;;13.80;99.90;;;;;;4982214;28;20672;-82
2022/07/05 03:48:52;;;;;;;1.37;1.10;;;13.90;99.90;;;;;;4981836;28;20243;-82
2022/07/05 03:51:17;;;;;;;1.37;1.17;;;13.90;99.90;;;;;;4996598;28;20314;-82
2022/07/05 03:53:43;;;;;;;2.20;1.43;;;14.00;99.90;;;;;;4980572;28;20234;-83
2022/07/05 03:56:09;;;;;;;1.37;1.10;;;14.00;99.90;;;;;;4981809;28;20227;-82
2022/07/05 03:58:34;;;;;;;1.77;1.50;;;14.00;99.90;;;;;;4981390;28;20658;-83
2022/07/05 04:01:00;;;;;;;1.20;1.10;;;14.00;99.90;;;;;;4982306;28;20238;-82
2022/07/05 04:03:26;;;;;;;0.83;0.83;;;14.10;99.90;;;;;;4981478;28;20696;-82
2022/07/05 04:05:52;;;;;;;1.10;1.00;;;14.20;99.90;;;;;;4981741;28;20259;-83
2022/07/05 04:08:17;;;;;;;6.67;1.30;;;14.20;99.90;;;;;;4996310;28;20227;-82
2022/07/05 04:10:43;;;;;;;1.03;0.97;;;14.10;99.90;;;;;;4997394;28;20223;-83
2022/07/05 04:13:09;;;;;;;1.63;1.10;;;14.20;99.90;;;;;;4985027;28;20575;-82
2022/07/05 04:15:34;;;;;;;3.63;1.17;;;14.20;99.90;;;;;;4985358;28;20216;-82
2022/07/05 04:18:00;;;;;;;2.23;1.23;;;14.20;99.90;;;;;;4984205;28;20755;-82
2022/07/05 04:20:26;;;;;;;1.40;1.07;;;14.20;99.90;;;;;;4984297;28;20232;-82
2022/07/05 04:22:52;;;;;;;1.23;1.17;;;14.20;99.90;;;;;;4985609;28;20223;-83
2022/07/05 04:25:18;;;;;;;1.37;0.97;;;14.30;99.90;;;;;;4986842;28;20198;-81
2022/07/05 04:27:52;;;;;;;3.27;1.03;;;14.40;99.90;;;;;;4984240;28;20804;-81
2022/07/05 04:30:24;;;;;;;1.23;0.93;;;14.60;99.90;;;;;;4988088;28;20223;-83
2022/07/05 04:32:49;;;;;;;5.37;0.97;;;14.70;99.90;;;;;;5000667;28;20290;-82
2022/07/05 04:35:16;;;;;;;3.40;0.80;;;14.90;99.90;;;;;;5000245;28;20578;-82
2022/07/05 04:37:42;;;;;;;2.83;1.00;;;15.00;99.90;;;;;;4999646;28;20246;-82
2022/07/05 04:40:11;;;;;;;3.53;1.03;;;15.10;99.90;;;;;;4984658;28;20184;-82
2022/07/05 04:42:37;;;;;;;1.13;0.70;;;15.10;99.90;;;;;;4985442;28;20221;-82
2022/07/05 04:45:04;;;;;;;1.20;0.70;;;15.20;99.90;;;;;;4983393;28;20751;-83
2022/07/05 04:47:30;;;;;;;2.37;1.03;;;15.20;99.90;;;;;;4999486;28;20488;-82
2022/07/05 04:49:57;;;;;;;0.90;0.77;;;15.20;99.90;;;;;;4983663;28;20239;-82
2022/07/05 04:52:23;;;;;;;2.17;1.20;;;15.20;99.90;;;;;;4984754;28;20183;-81
2022/07/05 04:54:49;;;;;;;0.90;0.80;;;15.30;99.90;;;;;;4985318;28;20664;-82
2022/07/05 04:57:15;;;;;;;2.50;1.00;;;15.40;99.90;;;;;;4984174;28;20346;-80
2022/07/05 04:59:41;;;;;;;1.07;1.03;;;15.60;99.90;;;;;;4998103;28;20704;-81
2022/07/05 05:02:06;;;;;;;2.10;0.83;;;15.80;99.90;;;;;;4953173;28;20227;-81
2022/07/05 05:04:32;;;;;;;2.30;1.20;;;15.90;99.90;;;;;;4986522;28;20227;-83
2022/07/05 05:06:58;;;;;;;3.90;1.03;;;15.90;99.90;;;;;;4989927;28;20582;-82
2022/07/05 05:09:24;;;;;;;3.67;0.90;;;16.10;99.90;;;;;;4984846;28;20250;-83
2022/07/05 05:11:50;;;;;;;0.70;0.70;;;16.20;99.90;;;;;;4984334;28;20429;-81
2022/07/05 05:14:16;;;;;;;2.20;0.90;;;16.20;99.90;;;;;;4984478;28;20400;-82
2022/07/05 05:16:42;;;;;;;0.90;0.80;;;16.30;99.90;;;;;;4982966;28;20196;-82
2022/07/05 05:19:08;;;;;;;2.47;1.20;;;16.60;99.90;;;;;;4977456;28;20231;-84
2022/07/05 05:21:33;;;;;;;1.20;1.10;;;17.20;99.90;;;;;;4998437;28;20700;-82
2022/07/05 05:23:59;;;;;;;7.07;0.80;;;19.80;99.90;;;;;;4981773;28;20288;-83
2022/07/05 05:26:25;;;;;;;1.13;1.03;;;22.90;99.90;;;;;;4984274;28;20228;-81
2022/07/05 05:28:51;;;;;;;3.70;0.90;;;22.30;99.90;;;;;;4983753;28;20257;-82
2022/07/05 05:31:18;;;;;;;0.60;0.60;;;22.30;99.90;;;;;;4984884;28;20250;-81
2022/07/05 05:33:45;;;;;;;0.70;0.70;;;24.40;99.90;;;;;;4999191;28;20251;-82
2022/07/05 05:36:10;;;;;;;15.40;1.33;;;26.40;99.90;;;;;;4983877;28;20767;-82
2022/07/05 05:38:37;;;;;;;1.80;0.60;;;25.70;99.90;;;;;;4983135;28;20683;-81
2022/07/05 05:41:03;;;;;;;0.60;0.60;;;26.50;99.90;;;;;;4982946;28;20760;-83
2022/07/05 05:43:29;;;;;;;4.10;0.70;;;24.30;99.90;;;;;;4982774;28;20206;-83
2022/07/05 05:45:55;;;;;;;4.93;1.10;;;21.70;99.90;;;;;;4983455;28;20192;-83
2022/07/05 05:48:21;;;;;;;2.33;0.93;;;20.60;99.90;;;;;;4983412;28;20593;-82
2022/07/05 05:50:47;;;;;;;3.43;1.33;;;19.50;99.90;;;;;;4984310;28;20254;-83
2022/07/05 05:53:13;;;;;;;1.70;0.90;;;18.60;99.90;;;;;;4983316;28;20227;-82
2022/07/05 05:55:40;;;;;;;0.70;0.70;;;18.50;99.90;;;;;;4983956;28;20454;-83
2022/07/05 05:58:18;;;;;;;1.13;0.80;;;18.00;99.90;;;;;;4982853;28;21036;-83
2022/07/05 06:00:48;;;;;;;2.93;1.23;;;17.80;99.90;;;;;;4984374;28;20227;-81
2022/07/05 06:03:15;;;;;;;3.80;0.70;;;17.70;99.90;;;;;;4983241;28;20731;-82
2022/07/05 06:05:40;;;;;;;5.23;0.90;;;17.70;99.90;;;;;;4981989;28;20308;-82
2022/07/05 06:08:07;;;;;;;1.17;0.70;;;17.60;99.90;;;;;;4997940;28;20741;-83
2022/07/05 06:10:34;;;;;;;0.90;0.73;;;17.60;99.90;;;;;;4983667;28;20563;-82
2022/07/05 06:13:01;;;;;;;2.93;1.03;;;17.50;99.90;;;;;;4984839;28;20199;-83
2022/07/05 06:15:28;;;;;;;4.73;1.37;;;17.50;99.90;;;;;;4983874;28;20215;-83
2022/07/05 06:17:53;;;;;;;0.93;0.43;;;17.40;99.90;;;;;;4983689;28;20725;-85
2022/07/05 06:20:41;;;;;;;2.10;1.00;;;17.30;99.90;;;;;;4983851;28;20215;-87
2022/07/05 06:23:07;;;;;;;1.37;1.03;;;17.30;99.90;;;;;;4982053;28;20222;-88
2022/07/05 06:25:34;;;;;;;2.13;0.73;;;17.50;99.90;;;;;;4998615;28;20196;-88
2022/07/05 06:28:07;;;;;;;0.80;0.80;;;17.60;99.90;;;;;;4986012;28;20697;-90
2022/07/05 06:30:35;;;;;;;1.03;0.93;;;17.80;99.90;;;;;;4984142;28;20231;-88
2022/07/05 06:33:02;;;;;;;5.20;1.30;;;17.70;99.90;;;;;;4984502;28;20222;-90
2022/07/05 06:35:28;;;;;;;2.83;0.90;;;18.00;99.90;;;;;;4999680;28;20216;-90
2022/07/05 06:38:08;;;;;;;1.83;1.13;;;18.50;99.90;;;;;;4984990;28;20243;-90
2022/07/05 06:40:41;;;;;;;1.53;0.70;;;18.60;99.90;;;;;;4985511;28;20187;-90
2022/07/05 06:43:09;;;;;;;2.90;0.70;;;18.50;99.90;;;;;;4985928;28;20215;-91
2022/07/05 06:45:35;;;;;;;4.47;1.23;;;18.60;99.90;;;;;;4985223;28;20508;-89
2022/07/05 06:48:04;;;;;;;0.63;0.47;;;18.90;99.90;;;;;;4985592;28;20818;-91
2022/07/05 06:50:32;;;;;;;5.70;0.90;;;19.70;99.90;;;;;;4984647;28;20243;-90
2022/07/05 06:52:58;;;;;;;1.83;1.13;;;19.10;99.90;;;;;;4999848;28;20299;-89
2022/07/05 06:55:25;;;;;;;1.03;0.60;;;18.80;99.90;;;;;;4999653;28;20640;-90
2022/07/05 06:58:01;;;;;;;2.00;0.63;;;18.40;99.90;;;;;;4966867;28;20319;-87
2022/07/05 07:00:27;;;;;;;3.13;1.17;;;18.20;99.90;;;;;;4982956;28;20223;-88
2022/07/05 07:02:53;;;;;;;2.43;1.10;;;18.20;99.90;;;;;;4982847;28;20749;-90
2022/07/05 07:05:19;;;;;;;1.43;0.70;;;18.40;99.90;;;;;;4981172;28;20216;-89
2022/07/05 07:10:29;;;;;;;2.10;1.10;;;18.20;99.90;;;;;;4984614;28;20207;-88
2022/07/05 07:12:56;;;;;;;5.10;1.07;;;18.20;99.90;;;;;;4998300;28;20797;-88
2022/07/05 07:15:22;;;;;;;1.97;0.83;;;18.20;99.90;;;;;;4998268;28;20298;-89
2022/07/05 07:17:48;;;;;;;1.00;0.90;;;18.10;99.90;;;;;;4957977;28;20323;-89
2022/07/05 07:20:13;;;;;;;2.57;0.90;;;18.10;99.90;;;;;;4966509;28;20271;-91
2022/07/05 07:22:39;;;;;;;1.20;0.70;;;18.10;99.90;;;;;;4982044;28;20192;-89
2022/07/05 07:25:08;;;;;;;0.50;0.50;;;18.20;99.90;;;;;;4966180;28;20191;-90
2022/07/05 07:27:47;;;;;;;3.43;0.97;;;18.10;99.90;;;;;;4982425;28;20310;-88
2022/07/05 07:30:15;;;;;;;0.70;0.60;;;18.30;99.90;;;;;;4983247;28;20210;-87
2022/07/05 07:32:42;;;;;;;2.50;0.70;;;18.40;99.90;;;;;;4990168;28;20574;-88
2022/07/05 07:35:09;;;;;;;1.40;0.80;;;18.40;99.90;;;;;;4982207;28;20728;-89
2022/07/05 07:37:35;;;;;;;1.40;0.70;;;18.90;99.90;;;;;;4999386;28;20330;-89
2022/07/05 07:40:02;;;;;;;2.00;0.70;;;20.00;99.90;;;;;;4983762;28;20203;-90
2022/07/05 07:42:28;;;;;;;1.30;0.87;;;20.40;99.90;;;;;;4983926;28;20224;-88
2022/07/05 07:44:54;;;;;;;2.13;1.00;;;20.10;99.90;;;;;;4982343;28;20259;-87
2022/07/05 07:47:20;;;;;;;1.87;0.97;;;19.60;99.90;;;;;;4998274;28;20275;-92
2022/07/05 07:49:46;;;;;;;3.50;0.80;;;19.00;99.90;;;;;;4983454;28;20228;-87
2022/07/05 07:52:12;;;;;;;1.50;0.70;;;19.20;99.90;;;;;;4983786;28;20199;-87
2022/07/05 07:54:38;;;;;;;0.57;0.57;;;19.40;99.90;;;;;;4982719;28;20418;-87
2022/07/05 07:57:05;;;;;;;3.40;0.80;;;19.40;99.90;;;;;;4980799;28;20224;-86
2022/07/05 07:59:31;;;;;;;3.10;0.77;;;19.90;99.90;;;;;;4981653;28;20240;-83
2022/07/05 08:01:57;;;;;;;8.10;0.80;;;19.80;99.90;;;;;;4980371;28;20231;-85
2022/07/05 08:04:23;;;;;;;0.73;0.67;;;19.30;99.90;;;;;;4982176;28;20196;-88
2022/07/05 08:06:48;;;;;;;0.90;0.87;;;18.80;99.90;;;;;;4964966;28;20219;-86
2022/07/05 08:09:14;;;;;;;0.70;0.70;;;19.00;99.90;;;;;;4996966;28;20582;-91
2022/07/05 08:11:40;;;;;;;1.33;1.10;;;19.20;99.90;;;;;;4982940;28;20256;-86
2022/07/05 08:14:06;;;;;;;1.47;1.00;;;19.20;99.90;;;;;;4981882;28;20668;-87
2022/07/05 08:16:32;;;;;;;0.80;0.80;;;20.80;99.90;;;;;;4982319;28;21008;-86
2022/07/05 08:21:44;;;;;;;2.00;0.67;;;21.90;99.90;;;;;;4995314;28;20224;-84
2022/07/05 08:24:13;;;;;;;1.23;0.70;;;20.90;99.90;;;;;;4980588;28;20238;-83
2022/07/05 08:26:40;;;;;;;1.33;1.23;;;20.20;99.90;;;;;;4996518;28;20220;-86
2022/07/05 08:29:08;;;;;;;1.23;0.70;;;19.30;99.90;;;;;;4997016;28;20689;-87
2022/07/05 08:31:38;;;;;;;1.00;0.90;;;19.20;99.90;;;;;;4982446;28;20291;-87
2022/07/05 08:34:03;;;;;;;1.00;0.90;;;19.30;99.90;;;;;;5001037;28;20188;-85
2022/07/05 08:36:30;;;;;;;1.70;0.97;;;19.00;99.90;;;;;;4984588;28;20836;-87
2022/07/05 08:38:55;;;;;;;1.00;0.73;;;19.10;99.90;;;;;;4985042;28;20263;-88
2022/07/05 08:41:22;;;;;;;1.80;1.17;;;19.10;99.90;;;;;;5000440;28;20235;-91
2022/07/05 08:43:49;;;;;;;1.93;0.97;;;19.10;99.90;;;;;;4985421;28;20559;-88
2022/07/05 08:46:17;;;;;;;1.97;0.97;;;19.90;99.90;;;;;;4984850;28;20191;-88
2022/07/05 08:48:48;;;;;;;0.73;0.73;;;21.80;99.90;;;;;;4983560;28;20256;-85
2022/07/05 08:51:22;;;;;;;0.97;0.93;;;23.20;99.90;;;;;;4983735;28;20228;-85
2022/07/05 08:53:50;;;;;;;5.73;1.13;;;23.10;99.90;;;;;;4981778;28;20570;-84
2022/07/05 08:56:17;;;;;;;0.60;0.60;;;23.30;99.90;;;;;;4980654;28;20241;-82
2022/07/05 08:58:44;;;;;;;3.17;1.17;;;23.70;99.90;;;;;;4982893;28;20227;-82
2022/07/05 09:01:11;;;;;;;1.90;1.00;;;23.40;99.90;;;;;;4983457;28;20192;-83
2022/07/05 09:03:48;;;;;;;0.60;0.60;;;23.60;99.90;;;;;;4983322;28;20306;-85
2022/07/05 09:06:20;;;;;;;2.67;0.98;;;22.00;99.90;;;;;;4979539;28;20219;-82
2022/07/05 09:08:48;;;;;;;1.50;0.60;;;21.40;99.90;;;;;;4979169;28;20227;-83
2022/07/05 09:11:15;;;;;;;3.13;0.90;;;20.50;99.90;;;;;;4994593;28;20751;-83
2022/07/05 09:13:47;;;;;;;2.47;1.07;;;19.90;99.90;;;;;;4981943;28;20192;-82
2022/07/05 09:16:13;;;;;;;1.80;1.57;;;19.80;99.90;;;;;;4982047;28;20302;-81
2022/07/05 09:18:41;;;;;;;1.00;0.73;;;20.20;99.90;;;;;;4995996;28;20258;-83
2022/07/05 09:21:18;;;;;;;2.33;0.90;;;21.40;99.90;;;;;;4980880;28;21128;-81
2022/07/05 09:23:53;;;;;;;3.53;0.90;;;22.20;99.90;;;;;;4995734;28;20216;-83
2022/07/05 09:26:19;;;;;;;2.83;0.60;;;22.50;99.90;;;;;;4982031;28;20222;-83
2022/07/05 09:28:55;;;;;;;4.10;1.13;;;22.80;99.90;;;;;;4981008;28;20228;-82
2022/07/05 09:31:33;;;;;;;1.30;0.80;;;23.00;99.90;;;;;;4981924;28;20188;-81
2022/07/05 09:34:07;;;;;;;2.58;0.57;;;23.50;99.90;;;;;;4989350;28;20226;-82
2022/07/05 09:36:58;;;;;;;1.92;0.75;;;24.00;99.90;;;;;;4996382;28;20250;-82
2022/07/05 09:39:30;;;;;;;1.40;0.82;;;24.70;99.90;;;;;;4981309;28;20311;-82
2022/07/05 09:42:12;;;;;;;1.48;0.77;;;24.50;99.90;;;;;;4983002;28;20289;-82
2022/07/05 09:44:43;;;;;;;0.65;0.63;;;24.70;99.90;;;;;;4982361;28;20226;-84
2022/07/05 09:47:12;;;;;;;1.42;0.88;;;22.50;99.90;;;;;;4986791;28;20285;-84
2022/07/05 09:49:48;;;;;;;2.58;0.80;;;21.40;99.90;;;;;;4982137;28;20367;-85
2022/07/05 09:52:33;;;;;;;1.00;0.70;;;20.00;99.90;;;;;;4997095;28;20195;-84
2022/07/05 09:55:16;;;;;;;0.60;0.60;;;19.50;99.90;;;;;;4983695;28;20379;-83
2022/07/05 09:57:42;;;;;;;1.50;0.80;;;20.70;99.90;;;;;;4997464;28;20259;-84
2022/07/05 10:00:11;;;;;;;0.60;0.60;;;22.10;99.90;;;;;;4983226;28;20779;-85
2022/07/05 10:02:46;;;;;;;0.80;0.80;;;23.30;99.90;;;;;;4982985;28;20224;-85
2022/07/05 10:05:12;;;;;;;3.47;0.60;;;23.50;99.90;;;;;;4983643;28;20226;-84
2022/07/05 10:07:52;;;;;;;0.55;0.55;;;23.30;99.90;;;;;;4982792;28;20258;-85
2022/07/05 10:10:19;;;;;;;4.32;0.85;;;23.30;99.90;;;;;;4984421;28;20188;-84
2022/07/05 10:12:48;;;;;;;1.17;0.73;;;23.60;99.90;;;;;;4984074;28;20363;-83
2022/07/05 10:15:19;;;;;;;0.70;0.70;;;24.50;99.90;;;;;;4982457;28;20222;-85
2022/07/05 10:17:47;;;;;;;3.08;0.80;;;24.00;99.90;;;;;;4980856;28;20215;-84
2022/07/05 10:20:40;;;;;;;1.25;0.73;;;23.70;99.90;;;;;;4981970;28;20228;-84
2022/07/05 10:23:15;;;;;;;0.68;0.68;;;22.60;99.90;;;;;;4982216;28;20242;-81
2022/07/05 10:25:43;;;;;;;1.05;0.60;;;21.10;99.90;;;;;;4981538;28;20191;-85
2022/07/05 10:28:09;;;;;;;2.60;0.80;;;20.60;99.90;;;;;;4980864;28;20664;-84
2022/07/05 10:30:36;;;;;;;3.63;0.70;;;20.40;99.90;;;;;;4983767;28;20228;-86
2022/07/05 10:33:05;;;;;;;2.23;0.70;;;20.00;99.90;;;;;;4983455;28;20232;-85
2022/07/05 10:35:31;;;;;;;0.70;0.70;;;19.80;99.90;;;;;;4982552;28;20310;-87
2022/07/05 10:37:59;;;;;;;1.03;0.93;;;19.50;99.90;;;;;;4983113;28;20238;-86
2022/07/05 10:40:26;;;;;;;1.70;0.90;;;19.20;99.90;;;;;;4998531;28;20196;-86
2022/07/05 10:42:56;;;;;;;0.93;0.90;;;19.00;99.90;;;;;;4983016;28;20279;-87
2022/07/05 10:45:25;;;;;;;1.33;1.10;;;18.70;99.90;;;;;;4971881;28;20727;-86
2022/07/05 10:48:09;;;;;;;3.97;1.17;;;18.70;99.90;;;;;;4982654;28;20243;-86
2022/07/05 10:50:59;;;;;;;1.63;0.67;;;18.50;99.90;;;;;;4983976;28;20707;-88
2022/07/05 10:53:49;;;;;;;2.37;1.13;;;18.00;99.90;;;;;;4983370;28;20218;-85
2022/07/05 10:56:15;;;;;;;1.10;1.00;;;17.70;99.90;;;;;;4982193;28;20295;-87
2022/07/05 10:58:41;;;;;;;3.13;0.90;;;17.60;99.90;;;;;;4983957;28;20306;-87
2022/07/05 11:01:19;;;;;;;1.57;0.80;;;17.70;99.90;;;;;;4983667;28;20188;-86
2022/07/05 11:04:00;;;;;;;1.13;0.80;;;17.80;99.90;;;;;;4982446;28;20441;-88
2022/07/05 11:06:52;;;;;;;2.43;0.87;;;17.80;99.90;;;;;;4983954;28;20240;-87
2022/07/05 11:09:20;;;;;;;1.43;0.87;;;17.80;99.90;;;;;;4981963;28;20665;-87
2022/07/05 11:11:51;;;;;;;0.70;0.60;;;17.70;99.90;;;;;;4966887;28;20220;-87
2022/07/05 11:14:20;;;;;;;1.33;1.00;;;17.70;99.90;;;;;;4983491;28;20219;-86
2022/07/05 11:16:47;;;;;;;2.00;0.80;;;17.70;99.90;;;;;;4988878;28;20539;-87
2022/07/05 11:19:16;;;;;;;1.47;0.90;;;17.90;99.90;;;;;;4983656;28;20200;-87
2022/07/05 11:22:05;;;;;;;2.17;1.00;;;18.00;99.90;;;;;;4983029;28;20314;-86
2022/07/05 11:24:37;;;;;;;2.33;1.03;;;18.30;99.90;;;;;;4983226;28;20681;-86
2022/07/05 11:27:10;;;;;;;2.50;1.07;;;18.20;99.90;;;;;;4998283;28;20216;-86
2022/07/05 11:29:48;;;;;;;2.93;0.90;;;18.10;99.90;;;;;;4981791;28;20228;-86
2022/07/05 11:32:18;;;;;;;1.83;1.00;;;17.70;99.90;;;;;;4997713;28;20219;-87
2022/07/05 11:34:47;;;;;;;4.80;1.53;;;17.40;99.90;;;;;;4988276;28;20644;-87
2022/07/05 11:37:28;;;;;;;7.53;1.37;;;17.30;99.90;;;;;;4983295;28;20195;-86
2022/07/05 11:40:11;;;;;;;1.10;0.73;;;17.30;99.90;;;;;;4983122;28;20223;-86
2022/07/05 11:42:39;;;;;;;1.40;0.83;;;17.50;99.90;;;;;;4997408;28;20227;-85
2022/07/05 11:45:09;;;;;;;1.43;1.10;;;17.80;99.90;;;;;;4982470;28;20672;-86
2022/07/05 11:47:35;;;;;;;1.20;0.80;;;18.00;99.90;;;;;;4982354;28;20216;-87
2022/07/05 11:50:01;;;;;;;2.30;0.90;;;18.20;99.90;;;;;;4982900;28;20238;-86
2022/07/05 11:52:28;;;;;;;0.50;0.50;;;18.30;99.90;;;;;;4981419;28;20188;-88
2022/07/05 11:54:54;;;;;;;0.80;0.80;;;18.50;99.90;;;;;;4982109;28;20331;-87
2022/07/05 11:57:20;;;;;;;1.47;0.70;;;18.70;99.90;;;;;;4971686;28;20314;-87
2022/07/05 11:59:47;;;;;;;2.87;0.70;;;18.80;99.90;;;;;;4997033;28;20228;-86
2022/07/05 12:02:13;;;;;;;2.60;1.00;;;18.90;99.90;;;;;;4982644;28;20250;-88
2022/07/05 12:04:39;;;;;;;0.80;0.67;;;19.10;99.90;;;;;;4981168;28;20671;-85
2022/07/05 12:07:04;;;;;;;1.20;0.70;;;19.10;99.90;;;;;;4983188;28;20188;-85
2022/07/05 12:12:42;;;;;;;0.97;0.97;;;19.00;99.90;;;;;;4997402;28;20686;-87
2022/07/05 12:15:09;;;;;;;1.00;1.00;;;19.20;99.90;;;;;;4982072;28;20306;-86
2022/07/05 12:17:36;;;;;;;2.63;0.70;;;19.30;99.90;;;;;;4980738;28;20618;-85
2022/07/05 12:20:02;;;;;;;2.10;0.60;;;19.20;99.90;;;;;;4982286;28;20531;-86
2022/07/05 12:22:37;;;;;;;1.10;1.00;;;18.90;99.90;;;;;;4982132;28;20200;-88
2022/07/05 12:25:06;;;;;;;2.23;1.10;;;18.70;99.90;;;;;;4982495;28;20184;-87
2022/07/05 12:27:34;;;;;;;3.33;1.00;;;18.90;99.90;;;;;;4981527;28;20219;-85
2022/07/05 12:30:02;;;;;;;0.80;0.80;;;19.10;99.90;;;;;;4981041;28;20286;-86
2022/07/05 12:32:29;;;;;;;1.70;1.23;;;19.30;99.90;;;;;;4967124;28;20227;-84
2022/07/05 12:34:56;;;;;;;1.80;0.63;;;19.80;99.90;;;;;;5000797;28;20211;-86
2022/07/05 12:37:26;;;;;;;1.40;0.50;;;20.00;99.90;;;;;;4986062;28;20674;-88
2022/07/05 12:40:07;;;;;;;1.87;1.30;;;19.80;99.90;;;;;;4984724;28;20733;-87
2022/07/05 12:42:36;;;;;;;4.90;1.00;;;19.40;99.90;;;;;;4984974;28;20226;-86
2022/07/05 12:45:12;;;;;;;0.83;0.60;;;19.10;99.90;;;;;;4985445;28;20223;-86
2022/07/05 12:47:53;;;;;;;3.07;0.77;;;19.10;99.90;;;;;;5001006;28;20253;-85
2022/07/05 12:50:19;;;;;;;0.97;0.70;;;19.10;99.90;;;;;;4985771;28;20247;-85
2022/07/05 12:53:01;;;;;;;1.83;0.60;;;19.50;99.90;;;;;;4985220;28;20234;-87
2022/07/05 12:58:20;;;;;;;1.23;0.83;;;19.60;99.90;;;;;;4986064;28;20200;-86
2022/07/05 13:00:46;;;;;;;1.50;1.20;;;19.40;99.90;;;;;;4984841;28;20230;-86
2022/07/05 13:03:12;;;;;;;1.77;0.80;;;19.00;99.90;;;;;;4984929;28;20321;-88
2022/07/05 13:05:38;;;;;;;1.30;0.70;;;19.10;99.90;;;;;;4968620;28;20806;-86
2022/07/05 13:08:03;;;;;;;1.53;0.90;;;19.40;99.90;;;;;;5000512;28;20231;-87
2022/07/05 13:10:31;;;;;;;3.70;1.10;;;19.40;99.90;;;;;;5000709;28;20192;-86
2022/07/05 13:12:58;;;;;;;0.63;0.57;;;19.50;99.90;;;;;;4986500;28;20291;-86